Center Grove, Iowa
Current Conditions -  °F | °C
As of 9:53 AM on Monday 24 Nov 2014 (Local Time) from KDBQ Reporting Station
Moderate Snow Moderate Snow  
Wind Chill: 12°   Ceiling: 1000
Heat Index: 27°   Visibility: 0.5mi
Dew Point: 25°   Wind: 23mph
Humidity: 92%   Direction: 290°WNW
Pressure: 29.32"   Gusts: 32mph
Location:  42.549°N, 90.6988°W
Report Text: KDBQ 241553Z 29020G28KT 1/2SM R36/2600V4000FT SN FZFG VV010 M03/M04 A2932 RMK AO2 PK WND 28029/1524 SLP938 P0002 T10281039
Loading
Personal Weather Stations






























Interactive Weather Map New forecast layout! Learn more

10-Day Weather Forecast

Advertisements
Track Severe Weather on mobile